Pagrindinis puslapis
METAR-TAF:

METAR-TAF

Oro uostai :

Ras al Chaima, Jungtiniai Arabų Emyratai

platuma: 25-37N, ilguma: 055-56E, Aukštis: 31 m

Dabartinis oras

Ataskaita buvo paskelbta 53 minutes, ne 03:00 UTC
Vėjas 2 kt iš Pietų
Temperatūra 15°C
Drėgmė 88%
Slėgis 1017 hPa
Matomumas: 7000 m

METAR: OMRK 020300Z 18002KT 7000 NSC 15/13 Q1017 A3003

Laikas: 07:53 (03:53 UTC)

Prognozė

Ataskaita buvo paskelbta 4 valandos ir 53 minutes, ne 23:00 UTC
Prognozė galioja nuo 02 metu 00 UTC su 03 metu 06 UTC
Vėjas 7 kt iš Rytų
Matomumas 10 km arba daugiau
nėra debesų žemiau 1500 m ir nėra kamuolinių lietaus debesų
Tikimybė 30%
nuo 02 metu 00 UTC su 02 metu 05 UTC
Matomumas: 4000 m
migla
Tapsmas
nuo 02 metu 07 UTC su 02 metu 09 UTC
Vėjas 10 kt iš Šiaurės/Šiaurės Vakarų
Tapsmas
nuo 02 metu 14 UTC su 02 metu 16 UTC
Vėjas 5 kt iš Rytų

TAF: OMRK 012300Z 0200/0306 10007KT CAVOK PROB30 0200/0205 4000 HZ BECMG 0207/0209 34010KT BECMG 0214/0216 09005KT

Orai ataskaitas ir orų prognozės (METAR, TAF).

turimą stotys yra geltonos ir raudonos taškus žemėlapyje.

Perkelti pele per norėdami pamatyti stoties vardą.

Tada spustelėkite, norėdami matyti oro stebėjimo ir prognozės.

Norėdami pakeisti žemėlapį: spustelėkite ant žalios mygtukų su juodo kryžiaus žemyn,; žalią mygtuką su brūkšneliu, jei norite nutolinti; arba žalių rodyklių gretimoms žemėlapius.


METAR-TAF: